Terminal Aerodrome Forecast
Issued by NWS Sterling, VA

Current Version | Previous Version | Graphics & Text | Print | Product List | Glossary Off
Versions: 1 2 3 4 5 6 7 8 9 10 11 12 13 14 15 16 17 18 19 20 21 22 23 24

901
FTUS41 KLWX 112322
TAFIAD
TAF
KIAD 112322Z 1200/1306 30009KT P6SM FEW250
     FM120600 29005KT P6SM FEW200 FEW250
     FM121300 20004KT P6SM SCT110 BKN250
     FM130300 26005KT P6SM SCT045 BKN050=

USA.gov is the U.S. government's official web portal to all federal, state and local government web resources and services.